»·PEaware :: SKW5233 KRDD-KSFO

SKW5233 :: KRDD-KSFO

FLIGHT INFORMATION

Flight Status: Arrived
Operator:
SkyWest Airlines
More flights by this operator :: More flights under this callsign
Pilot: Paul P. (20696)
Aircraft: DEHAVILLAND DASH 8 400
(DH8D)
More flights by this aircraft type
Origin: KRDD Redding Mun
United States
Destination: KSFO San Francisco Intl
United States
More flights between these airports :: More routes between these airports
Route: KENDL3 RBL GOLDN7
File this flight plan on PilotEdge
Remarks: PBN / D1 DOF / 181113 REG / N328NG OPR / SKW PER / C RMK / TCAS SIMBRIEF
Altitude:
(Current/Filed)
17,000ft
Speed:
(Current/Filed)
320kts
Departed: 13-Nov-18 12:12 PM
Arrived: 13-Nov-18 01:07 PM
Distance/Time
Traveled:
173nm/0:55
Distance/Time
To Go:
Arrived

Flight Plot

Page will automatically refresh every two minutes.

Flight plan parsing failed; only flown route is shown


Map Options




Map Legend


Flown Route
Filed Route
Departure Airport
Arrival Airport
Navaid (VOR, NDB)
Fix

Horizontal Profiles

Position Reports

Time Latitude Longitude Heading Altitude Ground
Speed
13-Nov-18 11:54 40.505097 -122.299163 316 510ft 0kts
13-Nov-18 11:55 40.505097 -122.299163 316 510ft 0kts
13-Nov-18 11:56 40.505097 -122.299163 316 510ft 0kts
13-Nov-18 11:57 40.505097 -122.299163 316 510ft 0kts
13-Nov-18 11:58 40.505097 -122.299163 316 510ft 0kts
13-Nov-18 11:59 40.505097 -122.299163 316 510ft 0kts
13-Nov-18 12:00 40.505097 -122.299163 316 510ft 0kts
13-Nov-18 12:01 40.505097 -122.299163 316 510ft 0kts
13-Nov-18 12:02 40.505097 -122.299163 316 510ft 0kts
13-Nov-18 12:03 40.505097 -122.299163 316 510ft 0kts
13-Nov-18 12:04 40.505097 -122.299163 316 510ft 0kts
13-Nov-18 12:05 40.505097 -122.299163 316 510ft 0kts
13-Nov-18 12:06 40.505097 -122.299163 316 510ft 0kts
13-Nov-18 12:07 40.505046 -122.299099 315 510ft 2kts
13-Nov-18 12:08 40.504672 -122.298437 275 510ft 2kts
13-Nov-18 12:09 40.504835 -122.298311 173 510ft 0kts
13-Nov-18 12:10 40.504835 -122.298311 173 510ft 0kts
13-Nov-18 12:11 40.504741 -122.298297 173 510ft 5kts
13-Nov-18 12:12 40.502580 -122.296819 135 510ft 15kts
13-Nov-18 12:13 40.502000 -122.296076 134 510ft 0kts
13-Nov-18 12:14 40.501653 -122.294986 29 510ft 4kts
13-Nov-18 12:15 40.513130 -122.294934 358 563ft 136kts
13-Nov-18 12:16 40.535208 -122.329127 229 2882ft 176kts
13-Nov-18 12:17 40.485495 -122.355584 209 5634ft 197kts
13-Nov-18 12:18 40.433878 -122.372059 164 8466ft 203kts
13-Nov-18 12:19 40.376285 -122.351100 163 10901ft 215kts
13-Nov-18 12:20 40.317055 -122.326482 162 13252ft 224kts
13-Nov-18 12:21 40.256310 -122.301278 164 15462ft 227kts
13-Nov-18 12:22 40.194347 -122.275766 164 16946ft 248kts
13-Nov-18 12:23 40.122062 -122.245973 164 17010ft 294kts
13-Nov-18 12:24 40.040832 -122.212403 164 17009ft 319kts
13-Nov-18 12:25 39.952738 -122.181909 184 17000ft 327kts
13-Nov-18 12:26 39.892738 -122.258255 249 17016ft 328kts
13-Nov-18 12:27 39.821477 -122.325498 196 17010ft 333kts
13-Nov-18 12:28 39.730042 -122.354880 194 17008ft 335kts
13-Nov-18 12:29 39.638935 -122.383735 194 17008ft 336kts
13-Nov-18 12:30 39.548369 -122.412479 194 17006ft 336kts
13-Nov-18 12:31 39.456720 -122.441463 194 17005ft 336kts
13-Nov-18 12:32 39.366171 -122.470024 194 17005ft 336kts
13-Nov-18 12:33 39.274016 -122.499043 194 17001ft 337kts
13-Nov-18 12:34 39.181961 -122.527871 194 17000ft 337kts
13-Nov-18 12:35 39.095427 -122.554981 194 16997ft 337kts
13-Nov-18 12:36 39.004918 -122.582562 191 17024ft 336kts
13-Nov-18 12:37 38.949469 -122.598743 195 16991ft 334kts
13-Nov-18 12:38 38.859087 -122.628770 194 16985ft 336kts
13-Nov-18 12:39 38.767994 -122.656780 194 16983ft 337kts
13-Nov-18 12:40 38.676690 -122.685014 194 16728ft 335kts
13-Nov-18 12:41 38.585916 -122.713065 194 15922ft 329kts
13-Nov-18 12:42 38.497144 -122.740426 194 15311ft 329kts
13-Nov-18 12:43 38.406237 -122.768309 193 14475ft 331kts
13-Nov-18 12:44 38.316518 -122.795763 194 13599ft 326kts
13-Nov-18 12:45 38.228615 -122.822603 193 12737ft 322kts
13-Nov-18 12:46 38.142786 -122.848721 194 11890ft 301kts
13-Nov-18 12:47 38.062885 -122.844693 149 11381ft 299kts
13-Nov-18 12:48 37.998463 -122.780915 139 10505ft 285kts
13-Nov-18 12:49 37.937707 -122.714511 139 9591ft 288kts
13-Nov-18 12:50 37.878717 -122.650877 140 9042ft 276kts
13-Nov-18 12:51 37.818236 -122.586234 139 9011ft 282kts
13-Nov-18 12:52 37.757015 -122.520636 139 9009ft 280kts
13-Nov-18 12:53 37.695449 -122.454819 139 8999ft 281kts
13-Nov-18 12:54 37.626689 -122.404951 154 8048ft 267kts
13-Nov-18 12:55 37.570126 -122.370036 154 6693ft 242kts
13-Nov-18 12:56 37.509939 -122.333265 154 6028ft 237kts
13-Nov-18 12:57 37.449443 -122.296799 154 6015ft 239kts
13-Nov-18 12:58 37.389053 -122.259827 146 6006ft 237kts
13-Nov-18 12:59 37.356945 -122.187288 114 6023ft 240kts
13-Nov-18 13:00 37.328963 -122.109032 114 6011ft 238kts
13-Nov-18 13:01 37.348692 -122.040450 25 6024ft 237kts
13-Nov-18 13:02 37.410965 -122.007332 2 6005ft 238kts
13-Nov-18 13:03 37.469339 -122.051072 313 5412ft 254kts
13-Nov-18 13:04 37.504690 -122.108948 303 4342ft 240kts
13-Nov-18 13:05 37.540392 -122.186869 298 2998ft 232kts
13-Nov-18 13:06 37.567084 -122.251256 298 1918ft 177kts
13-Nov-18 13:07 37.583736 -122.291271 298 1157ft 131kts
13-Nov-18 13:08 37.600692 -122.331492 296 532ft 122kts
13-Nov-18 13:09 37.618938 -122.375699 295 21ft 64kts
13-Nov-18 13:10 37.621730 -122.382735 259 20ft 11kts
13-Nov-18 13:11 37.620004 -122.382887 124 20ft 13kts
13-Nov-18 13:12 37.618364 -122.382012 139 20ft 2kts
13-Nov-18 13:13 37.618361 -122.382009 139 20ft 0kts

Navigation Log

Ident Type
Flight plan parsing failed, navigation log unavailable